createdAt,value
2022-10-08T00:02:15.203Z,3.53
2022-10-08T00:04:43.649Z,3.90
2022-10-08T00:07:11.873Z,3.30
2022-10-08T00:09:40.141Z,3.90
2022-10-08T00:12:09.745Z,3.47
2022-10-08T00:14:38.477Z,3.63
2022-10-08T00:17:06.747Z,3.50
2022-10-08T00:19:35.154Z,3.77
2022-10-08T00:22:03.442Z,3.77
2022-10-08T00:24:32.158Z,3.90
2022-10-08T00:27:00.438Z,3.80
2022-10-08T00:29:30.283Z,3.53
2022-10-08T00:31:59.155Z,3.03
2022-10-08T00:34:27.734Z,3.50
2022-10-08T00:36:56.727Z,4.07
2022-10-08T00:39:26.220Z,3.50
2022-10-08T00:41:56.447Z,3.40
2022-10-08T00:44:56.082Z,3.33
2022-10-08T00:47:40.937Z,3.70
2022-10-08T00:50:13.346Z,3.47
2022-10-08T00:52:45.367Z,3.70
2022-10-08T00:55:16.283Z,3.40
2022-10-08T00:57:44.916Z,3.67
2022-10-08T01:00:17.270Z,3.77
2022-10-08T01:02:45.946Z,3.70
2022-10-08T01:05:16.957Z,3.87
2022-10-08T01:07:52.807Z,4.03
2022-10-08T01:10:33.469Z,3.70
2022-10-08T01:13:18.293Z,4.00
2022-10-08T01:15:57.109Z,4.67
2022-10-08T01:18:35.596Z,4.07
2022-10-08T01:21:10.668Z,4.33
2022-10-08T01:24:03.558Z,4.33
2022-10-08T01:26:50.333Z,3.90
2022-10-08T01:29:23.085Z,3.93
2022-10-08T01:31:56.182Z,4.10
2022-10-08T01:34:30.893Z,4.13
2022-10-08T01:37:01.089Z,4.57
2022-10-08T01:39:33.008Z,4.27
2022-10-08T01:42:04.553Z,4.13
2022-10-08T01:44:38.878Z,3.70
2022-10-08T01:47:11.636Z,4.00
2022-10-08T01:49:44.211Z,4.60
2022-10-08T01:52:19.283Z,3.90
2022-10-08T01:54:50.425Z,4.10
2022-10-08T01:57:18.908Z,4.10
2022-10-08T01:59:52.430Z,3.93
2022-10-08T02:02:22.532Z,4.03
2022-10-08T02:04:53.500Z,4.00
2022-10-08T02:07:25.242Z,3.93
2022-10-08T02:10:02.123Z,4.10
2022-10-08T02:12:31.293Z,4.40
2022-10-08T02:15:01.696Z,4.33
2022-10-08T02:17:37.860Z,3.77
2022-10-08T02:20:16.309Z,4.00
2022-10-08T02:22:53.595Z,4.00
2022-10-08T02:25:29.582Z,3.43
2022-10-08T02:28:06.739Z,4.53
2022-10-08T02:30:42.180Z,3.73
2022-10-08T02:33:15.717Z,3.93
2022-10-08T02:35:48.010Z,4.23
2022-10-08T02:38:20.211Z,4.20
2022-10-08T02:40:51.725Z,4.30
2022-10-08T02:43:23.363Z,4.07
2022-10-08T02:45:58.242Z,4.23
2022-10-08T02:48:31.405Z,4.43
2022-10-08T02:51:03.662Z,4.37
2022-10-08T02:53:32.934Z,4.40
2022-10-08T02:56:09.580Z,4.23
2022-10-08T02:58:38.402Z,4.00
2022-10-08T03:01:16.280Z,4.37
2022-10-08T03:03:50.026Z,4.30
2022-10-08T03:06:19.519Z,4.17
2022-10-08T03:08:50.323Z,4.30
2022-10-08T03:11:18.810Z,4.40
2022-10-08T03:13:49.520Z,4.67
2022-10-08T03:16:23.093Z,4.43
2022-10-08T03:18:52.252Z,4.47
2022-10-08T03:21:21.443Z,4.53
2022-10-08T03:23:49.797Z,4.37
2022-10-08T03:26:19.150Z,4.40
2022-10-08T03:28:47.660Z,4.67
2022-10-08T03:31:16.075Z,4.97
2022-10-08T03:33:50.641Z,4.50
2022-10-08T03:36:19.000Z,4.63
2022-10-08T03:38:47.294Z,4.47
2022-10-08T03:41:16.250Z,5.20
2022-10-08T03:43:45.244Z,4.10
2022-10-08T03:46:14.723Z,4.63
2022-10-08T03:48:43.653Z,4.60
2022-10-08T03:51:16.080Z,4.77
2022-10-08T03:53:45.031Z,4.70
2022-10-08T03:56:15.595Z,4.47
2022-10-08T03:58:44.057Z,4.73
2022-10-08T04:01:14.336Z,5.03
2022-10-08T04:03:42.886Z,5.60
2022-10-08T04:06:11.175Z,4.87
2022-10-08T04:08:41.321Z,5.03
2022-10-08T04:11:11.145Z,4.70
2022-10-08T04:13:39.815Z,4.97
2022-10-08T04:16:10.282Z,4.90
2022-10-08T04:18:38.738Z,4.97
2022-10-08T04:21:08.460Z,5.30
2022-10-08T04:23:39.380Z,5.37
2022-10-08T04:26:09.716Z,5.17
2022-10-08T04:28:39.295Z,5.50
2022-10-08T04:31:09.872Z,5.37
2022-10-08T04:33:39.217Z,5.60
2022-10-08T04:36:10.256Z,5.00
2022-10-08T04:38:38.635Z,5.33
2022-10-08T04:41:09.905Z,5.10
2022-10-08T04:43:40.090Z,5.73
2022-10-08T04:46:10.489Z,5.33
2022-10-08T04:48:39.402Z,5.77
2022-10-08T04:51:10.906Z,5.47
2022-10-08T04:53:39.765Z,5.83
2022-10-08T04:56:14.317Z,5.50
2022-10-08T04:58:42.992Z,5.13
2022-10-08T05:01:13.394Z,5.37
2022-10-08T05:03:43.163Z,6.03
2022-10-08T05:06:11.823Z,6.37
2022-10-08T05:08:40.220Z,5.97
2022-10-08T05:11:09.118Z,6.40
2022-10-08T05:13:38.994Z,6.20
2022-10-08T05:16:08.534Z,6.60
2022-10-08T05:18:38.265Z,6.20
2022-10-08T05:21:07.454Z,6.77
2022-10-08T05:23:36.427Z,6.73
2022-10-08T05:26:13.800Z,6.63
2022-10-08T05:28:44.239Z,6.83
2022-10-08T05:31:12.702Z,6.43
2022-10-08T05:33:41.498Z,7.60
2022-10-08T05:36:20.375Z,7.03
2022-10-08T05:38:49.726Z,6.43
2022-10-08T05:41:20.896Z,6.17
2022-10-08T05:43:51.091Z,5.63
2022-10-08T05:46:19.687Z,6.23
2022-10-08T05:48:48.127Z,6.43
2022-10-08T05:51:17.935Z,6.23
2022-10-08T05:53:47.854Z,6.77
2022-10-08T05:56:18.316Z,6.80
2022-10-08T05:58:47.736Z,6.50
2022-10-08T06:01:20.323Z,7.43
2022-10-08T06:03:51.564Z,6.67
2022-10-08T06:06:20.185Z,6.67
2022-10-08T06:08:48.754Z,6.43
2022-10-08T06:11:17.378Z,7.43
2022-10-08T06:13:45.718Z,6.93
2022-10-08T06:16:14.428Z,6.80
2022-10-08T06:18:44.177Z,7.70
2022-10-08T06:21:14.779Z,7.33
2022-10-08T06:23:48.201Z,8.23
2022-10-08T06:26:17.966Z,6.83
2022-10-08T06:28:47.180Z,6.30
2022-10-08T06:31:15.660Z,6.17
2022-10-08T06:33:45.756Z,5.73
2022-10-08T06:36:16.780Z,5.63
2022-10-08T06:38:45.307Z,4.63
2022-10-08T06:41:13.820Z,4.87
2022-10-08T06:43:42.133Z,4.43
2022-10-08T06:46:10.570Z,4.37
2022-10-08T06:48:38.852Z,3.67
2022-10-08T06:51:12.350Z,4.10
2022-10-08T06:53:41.072Z,3.40
2022-10-08T06:56:14.602Z,3.43
2022-10-08T06:58:45.045Z,3.23
2022-10-08T07:01:16.367Z,3.33
2022-10-08T07:03:47.503Z,4.10
2022-10-08T07:06:17.467Z,3.63
2022-10-08T07:08:45.767Z,3.27
2022-10-08T07:11:15.913Z,3.90
2022-10-08T07:13:45.176Z,4.80
2022-10-08T07:16:20.315Z,3.90
2022-10-08T07:18:50.301Z,3.90
2022-10-08T07:21:21.117Z,3.83
2022-10-08T07:23:49.587Z,3.87
2022-10-08T07:26:20.175Z,3.30
2022-10-08T07:28:51.341Z,3.67
2022-10-08T07:31:21.689Z,3.83
2022-10-08T07:33:50.391Z,3.60
2022-10-08T07:36:23.871Z,3.97
2022-10-08T07:38:55.587Z,4.00
2022-10-08T07:41:24.229Z,3.47
2022-10-08T07:43:53.764Z,3.70
2022-10-08T07:46:22.939Z,3.77
2022-10-08T07:48:51.917Z,3.57
2022-10-08T07:51:22.475Z,4.03
2022-10-08T07:53:51.040Z,4.17
2022-10-08T07:56:21.331Z,3.27
2022-10-08T07:58:50.437Z,4.30
2022-10-08T08:01:21.294Z,4.13
2022-10-08T08:03:55.373Z,4.30
2022-10-08T08:06:26.680Z,4.00
2022-10-08T08:08:55.417Z,4.00
2022-10-08T08:11:25.474Z,3.87
2022-10-08T08:13:54.270Z,4.30
2022-10-08T08:16:26.347Z,3.20
2022-10-08T08:18:57.390Z,3.40
2022-10-08T08:21:29.040Z,3.90
2022-10-08T08:23:59.473Z,3.67
2022-10-08T08:26:29.992Z,3.42
2022-10-08T08:29:00.192Z,3.45
2022-10-08T08:31:30.563Z,3.70
2022-10-08T08:34:00.666Z,3.65
2022-10-08T08:36:31.297Z,3.80
2022-10-08T08:39:00.213Z,3.40
2022-10-08T08:42:00.591Z,3.22
2022-10-08T08:44:37.610Z,3.95
2022-10-08T08:47:14.201Z,3.50
2022-10-08T08:49:44.357Z,3.08
2022-10-08T08:52:17.067Z,3.75
2022-10-08T08:54:49.472Z,4.07
2022-10-08T08:57:33.295Z,3.70
2022-10-08T09:00:06.548Z,3.88
2022-10-08T09:02:39.543Z,3.67
2022-10-08T09:05:13.284Z,3.80
2022-10-08T09:07:47.760Z,4.15
2022-10-08T09:10:20.422Z,4.18
2022-10-08T09:12:52.255Z,4.13
2022-10-08T09:15:22.370Z,3.58
2022-10-08T09:17:53.265Z,4.40
2022-10-08T09:20:24.653Z,4.32
2022-10-08T09:22:55.862Z,4.65
2022-10-08T09:25:28.280Z,4.15
2022-10-08T09:27:58.371Z,4.18
2022-10-08T09:30:33.994Z,3.67
2022-10-08T09:33:06.095Z,4.95
2022-10-08T09:35:35.897Z,3.72
2022-10-08T09:38:06.265Z,3.80
2022-10-08T09:40:34.668Z,4.65
2022-10-08T09:43:15.875Z,4.00
2022-10-08T09:45:46.394Z,4.00
2022-10-08T09:48:26.070Z,4.18
2022-10-08T09:51:03.953Z,4.13
2022-10-08T09:53:45.350Z,3.83
2022-10-08T09:56:15.191Z,3.85
2022-10-08T09:58:54.019Z,3.78
2022-10-08T10:01:24.868Z,3.85
2022-10-08T10:03:55.862Z,3.60
2022-10-08T10:06:33.649Z,3.05
2022-10-08T10:09:08.201Z,3.10
2022-10-08T10:11:41.823Z,3.08
2022-10-08T10:14:21.553Z,3.40
2022-10-08T10:16:55.867Z,3.00
2022-10-08T10:19:30.651Z,2.92
2022-10-08T10:22:04.145Z,3.08
2022-10-08T10:24:49.350Z,2.67
2022-10-08T10:27:24.777Z,3.00
2022-10-08T10:30:01.800Z,2.55
2022-10-08T10:32:36.523Z,2.40
2022-10-08T10:35:12.604Z,2.42
2022-10-08T10:37:48.642Z,2.40
2022-10-08T10:40:43.622Z,2.00
2022-10-08T10:43:34.353Z,2.33
2022-10-08T10:46:22.086Z,2.50
2022-10-08T10:48:51.129Z,2.08
2022-10-08T10:51:38.697Z,2.17
2022-10-08T10:54:20.903Z,2.45
2022-10-08T10:56:56.546Z,2.75
2022-10-08T10:59:47.399Z,2.40
2022-10-08T11:02:25.239Z,1.80
2022-10-08T11:05:05.457Z,1.90
2022-10-08T11:08:05.432Z,1.60
2022-10-08T11:10:46.243Z,1.70
2022-10-08T11:13:33.940Z,1.80
2022-10-08T11:16:11.899Z,1.88
2022-10-08T11:18:49.162Z,2.10
2022-10-08T11:21:28.756Z,1.98
2022-10-08T11:24:12.710Z,1.98
2022-10-08T11:26:47.071Z,1.90
2022-10-08T11:29:24.121Z,2.05
2022-10-08T11:31:54.096Z,1.83
2022-10-08T11:34:27.934Z,2.10
2022-10-08T11:37:12.574Z,2.00
2022-10-08T11:39:48.401Z,2.33
2022-10-08T11:42:25.051Z,1.70
2022-10-08T11:44:54.731Z,1.60
2022-10-08T11:47:51.100Z,1.50
2022-10-08T11:50:29.509Z,2.08
2022-10-08T11:53:01.808Z,1.67
2022-10-08T11:55:33.510Z,1.67
2022-10-08T11:58:08.707Z,1.75
2022-10-08T12:00:44.028Z,1.80
2022-10-08T12:03:27.350Z,1.80
2022-10-08T12:05:58.632Z,1.70
2022-10-08T12:08:49.760Z,1.67
2022-10-08T12:11:50.099Z,1.85
2022-10-08T12:14:49.121Z,2.15
2022-10-08T12:17:19.140Z,2.25
2022-10-08T12:20:04.386Z,1.63
2022-10-08T12:23:00.197Z,1.80
2022-10-08T12:25:38.429Z,1.92
2022-10-08T12:28:47.525Z,1.73
2022-10-08T12:31:29.093Z,1.80
2022-10-08T12:34:04.882Z,2.20
2022-10-08T12:36:41.444Z,1.77
2022-10-08T12:39:18.370Z,1.85
2022-10-08T12:41:54.808Z,1.77
2022-10-08T12:44:44.801Z,1.77
2022-10-08T12:47:24.763Z,2.40
2022-10-08T12:49:59.854Z,2.10
2022-10-08T12:52:34.029Z,2.15
2022-10-08T12:55:03.553Z,2.03
2022-10-08T12:57:35.045Z,2.20
2022-10-08T13:00:09.740Z,1.95
2022-10-08T13:02:39.901Z,1.80
2022-10-08T13:05:27.445Z,1.67
2022-10-08T13:07:55.955Z,1.77
2022-10-08T13:10:26.022Z,1.90
2022-10-08T13:13:02.060Z,1.83
2022-10-08T13:15:31.182Z,1.90
2022-10-08T13:17:59.479Z,1.58
2022-10-08T13:20:29.193Z,1.90
2022-10-08T13:22:57.415Z,1.80
2022-10-08T13:25:34.052Z,1.95
2022-10-08T13:28:17.965Z,1.95
2022-10-08T13:30:47.065Z,2.00
2022-10-08T13:33:19.512Z,2.50
2022-10-08T13:35:55.519Z,1.92
2022-10-08T13:38:26.562Z,2.45
2022-10-08T13:40:58.648Z,2.35
2022-10-08T13:43:27.648Z,1.85
2022-10-08T13:45:56.174Z,1.95
2022-10-08T13:48:24.504Z,1.85
2022-10-08T13:50:54.663Z,1.95
2022-10-08T13:53:25.805Z,2.72
2022-10-08T13:55:54.038Z,3.28
2022-10-08T13:58:23.082Z,1.75
2022-10-08T14:00:51.411Z,2.35
2022-10-08T14:03:19.733Z,1.80
2022-10-08T14:05:49.295Z,2.10
2022-10-08T14:08:20.880Z,1.95
2022-10-08T14:10:49.342Z,2.80
2022-10-08T14:13:17.893Z,4.00
2022-10-08T14:15:46.275Z,5.65
2022-10-08T14:18:14.560Z,10.98
2022-10-08T14:20:43.491Z,7.32
2022-10-08T14:23:13.941Z,4.53
2022-10-08T14:25:43.751Z,5.57
2022-10-08T14:28:12.187Z,3.65
2022-10-08T14:30:40.613Z,4.38
2022-10-08T14:33:11.457Z,2.85
2022-10-08T14:35:40.570Z,3.50
2022-10-08T14:38:09.735Z,2.72
2022-10-08T14:40:39.047Z,2.47
2022-10-08T14:43:08.757Z,2.75
2022-10-08T14:45:37.256Z,2.92
2022-10-08T14:48:05.778Z,2.75
2022-10-08T14:50:34.059Z,7.68
2022-10-08T14:53:02.609Z,9.45
2022-10-08T14:55:31.270Z,12.07
2022-10-08T14:57:59.529Z,24.50
2022-10-08T15:00:29.294Z,30.92
2022-10-08T15:02:57.572Z,42.30
2022-10-08T15:05:25.895Z,34.72
2022-10-08T15:07:54.207Z,33.35
2022-10-08T15:10:22.470Z,30.00
2022-10-08T15:12:51.065Z,25.27
2022-10-08T15:15:20.020Z,21.58
2022-10-08T15:17:50.094Z,27.95
2022-10-08T15:20:18.979Z,35.22
2022-10-08T15:22:47.427Z,27.55
2022-10-08T15:25:15.955Z,29.30
2022-10-08T15:27:44.741Z,37.60
2022-10-08T15:30:14.327Z,24.23
2022-10-08T15:32:42.582Z,22.88
2022-10-08T15:35:12.409Z,24.35
2022-10-08T15:37:40.759Z,20.75
2022-10-08T15:40:10.015Z,19.70
2022-10-08T15:42:38.284Z,23.35
2022-10-08T15:45:07.450Z,27.73
2022-10-08T15:47:35.841Z,30.80
2022-10-08T15:50:04.302Z,36.45
2022-10-08T15:52:34.609Z,36.22
2022-10-08T15:55:03.824Z,37.03
2022-10-08T15:57:32.328Z,42.42
2022-10-08T16:00:00.800Z,47.42
2022-10-08T16:02:29.116Z,51.42
2022-10-08T16:04:57.472Z,42.42
2022-10-08T16:07:25.761Z,31.63
2022-10-08T16:09:55.393Z,29.38
2022-10-08T16:12:23.667Z,39.92
2022-10-08T16:14:51.926Z,34.33
2022-10-08T16:17:22.452Z,29.93
2022-10-08T16:19:50.996Z,23.50
2022-10-08T16:22:19.216Z,26.08
2022-10-08T16:24:47.493Z,26.58
2022-10-08T16:27:17.292Z,21.80
2022-10-08T16:29:45.641Z,20.13
2022-10-08T16:32:14.414Z,26.45
2022-10-08T16:34:44.982Z,30.17
2022-10-08T16:37:13.907Z,26.20
2022-10-08T16:39:42.771Z,27.50
2022-10-08T16:42:11.229Z,31.27
2022-10-08T16:44:40.889Z,54.43
2022-10-08T16:47:10.072Z,51.15
2022-10-08T16:49:38.483Z,46.93
2022-10-08T16:52:08.287Z,44.47
2022-10-08T16:54:36.835Z,39.93
2022-10-08T16:57:05.155Z,40.13
2022-10-08T16:59:33.618Z,41.13
2022-10-08T17:02:03.483Z,42.90
2022-10-08T17:04:38.972Z,42.57
2022-10-08T17:07:08.126Z,44.87
2022-10-08T17:09:37.014Z,45.63
2022-10-08T17:12:05.406Z,51.20
2022-10-08T17:14:34.487Z,49.27
2022-10-08T17:17:04.317Z,46.33
2022-10-08T17:19:33.019Z,42.53
2022-10-08T17:22:01.282Z,42.57
2022-10-08T17:24:29.616Z,41.07
2022-10-08T17:26:58.062Z,40.90
2022-10-08T17:29:26.389Z,42.87
2022-10-08T17:31:54.783Z,42.63
2022-10-08T17:34:24.798Z,41.97
2022-10-08T17:36:53.129Z,41.27
2022-10-08T17:39:21.422Z,42.30
2022-10-08T17:41:49.924Z,43.10
2022-10-08T17:44:18.215Z,41.93
2022-10-08T17:46:47.808Z,41.40
2022-10-08T17:49:17.780Z,41.13
2022-10-08T17:51:48.323Z,39.70
2022-10-08T17:54:19.776Z,40.00
2022-10-08T17:56:48.786Z,38.63
2022-10-08T17:59:18.593Z,42.47
2022-10-08T18:01:47.011Z,40.30
2022-10-08T18:04:17.695Z,38.30
2022-10-08T18:06:48.871Z,38.43
2022-10-08T18:09:19.468Z,37.77
2022-10-08T18:11:50.979Z,37.27
2022-10-08T18:14:19.679Z,36.63
2022-10-08T18:16:48.796Z,37.47
2022-10-08T18:19:17.904Z,38.93
2022-10-08T18:21:47.921Z,38.10
2022-10-08T18:24:16.509Z,36.83
2022-10-08T18:26:53.796Z,35.97
2022-10-08T18:29:22.224Z,36.73
2022-10-08T18:31:50.884Z,35.80
2022-10-08T18:34:20.203Z,37.17
2022-10-08T18:36:49.829Z,35.33
2022-10-08T18:39:21.582Z,32.87
2022-10-08T18:41:54.350Z,33.20
2022-10-08T18:44:24.845Z,35.20
2022-10-08T18:46:53.646Z,33.57
2022-10-08T18:49:24.249Z,34.73
2022-10-08T18:51:53.872Z,36.47
2022-10-08T18:54:22.172Z,35.93
2022-10-08T18:56:50.498Z,37.27
2022-10-08T18:59:19.375Z,38.53
2022-10-08T19:01:48.814Z,36.23
2022-10-08T19:04:20.450Z,38.53
2022-10-08T19:06:50.372Z,39.13
2022-10-08T19:09:20.185Z,41.87
2022-10-08T19:11:50.486Z,40.60
2022-10-08T19:14:20.576Z,38.40
2022-10-08T19:16:52.784Z,40.50
2022-10-08T19:19:22.577Z,37.43
2022-10-08T19:21:52.211Z,37.20
2022-10-08T19:24:23.744Z,41.80
2022-10-08T19:26:52.416Z,41.87
2022-10-08T19:29:22.566Z,45.93
2022-10-08T19:31:51.847Z,45.80
2022-10-08T19:34:22.010Z,46.57
2022-10-08T19:36:50.936Z,49.57
2022-10-08T19:39:22.234Z,46.43
2022-10-08T19:41:50.726Z,44.73
2022-10-08T19:44:19.731Z,46.07
2022-10-08T19:46:48.446Z,50.75
2022-10-08T19:49:17.316Z,46.43
2022-10-08T19:51:45.969Z,41.43
2022-10-08T19:54:14.483Z,36.37
2022-10-08T19:56:44.317Z,38.57
2022-10-08T19:59:21.789Z,37.20
2022-10-08T20:01:50.141Z,25.53
2022-10-08T20:04:24.672Z,23.37
2022-10-08T20:06:52.974Z,21.47
2022-10-08T20:09:21.277Z,23.20
2022-10-08T20:11:52.853Z,22.37
2022-10-08T20:14:21.122Z,23.07
2022-10-08T20:16:49.391Z,18.13
2022-10-08T20:19:19.571Z,20.80
2022-10-08T20:21:49.119Z,19.83
2022-10-08T20:24:18.844Z,17.70
2022-10-08T20:26:48.952Z,19.83
2022-10-08T20:29:20.600Z,18.00
2022-10-08T20:31:51.418Z,17.27
2022-10-08T20:34:21.180Z,17.87
2022-10-08T20:36:52.617Z,18.30
2022-10-08T20:39:22.184Z,18.53
2022-10-08T20:41:51.723Z,17.30
2022-10-08T20:44:21.952Z,20.97
2022-10-08T20:46:51.467Z,19.90
2022-10-08T20:49:19.942Z,19.43
2022-10-08T20:51:48.399Z,17.90
2022-10-08T20:54:17.975Z,18.40
2022-10-08T20:56:46.494Z,19.53
2022-10-08T20:59:17.800Z,17.43
2022-10-08T21:01:47.791Z,19.97
2022-10-08T21:04:16.157Z,18.17
2022-10-08T21:06:47.350Z,18.57
2022-10-08T21:09:17.000Z,18.90
2022-10-08T21:11:46.972Z,18.33
2022-10-08T21:14:18.028Z,19.27
2022-10-08T21:16:47.676Z,19.90
2022-10-08T21:19:22.012Z,19.70
2022-10-08T21:21:50.904Z,18.03
2022-10-08T21:24:19.322Z,18.60
2022-10-08T21:26:47.607Z,18.50
2022-10-08T21:29:16.494Z,19.03
2022-10-08T21:31:45.025Z,17.70
2022-10-08T21:34:14.891Z,18.67
2022-10-08T21:36:44.704Z,18.90
2022-10-08T21:39:18.894Z,19.00
2022-10-08T21:41:48.023Z,20.07
2022-10-08T21:44:16.908Z,20.13
2022-10-08T21:46:45.761Z,19.23
2022-10-08T21:49:17.871Z,19.90
2022-10-08T21:51:46.329Z,18.53
2022-10-08T21:54:15.086Z,18.53
2022-10-08T21:56:44.106Z,18.73
2022-10-08T21:59:14.064Z,19.23
2022-10-08T22:01:44.088Z,18.30
2022-10-08T22:04:15.261Z,19.97
2022-10-08T22:06:45.147Z,18.63
2022-10-08T22:09:16.373Z,17.77
2022-10-08T22:11:44.601Z,17.50
2022-10-08T22:14:12.992Z,19.47
2022-10-08T22:16:41.457Z,17.70
2022-10-08T22:19:09.763Z,18.33
2022-10-08T22:21:39.809Z,17.33
2022-10-08T22:24:08.543Z,17.27
2022-10-08T22:26:38.920Z,16.77
2022-10-08T22:29:07.884Z,18.30
2022-10-08T22:31:37.266Z,19.03
2022-10-08T22:34:05.670Z,17.50
2022-10-08T22:36:38.743Z,18.03
2022-10-08T22:39:08.477Z,18.23
2022-10-08T22:41:37.028Z,18.33
2022-10-08T22:44:05.871Z,16.77
2022-10-08T22:46:38.908Z,17.63
2022-10-08T22:49:09.860Z,17.90
2022-10-08T22:51:38.632Z,16.93
2022-10-08T22:54:10.111Z,16.30
2022-10-08T22:56:38.508Z,17.90
2022-10-08T22:59:06.760Z,16.03
2022-10-08T23:01:35.144Z,16.43
2022-10-08T23:04:03.387Z,16.23
2022-10-08T23:06:33.139Z,16.60
2022-10-08T23:09:03.299Z,16.77
2022-10-08T23:11:33.413Z,17.13
2022-10-08T23:14:02.813Z,17.23
2022-10-08T23:16:32.957Z,16.50
2022-10-08T23:19:03.086Z,16.10
2022-10-08T23:21:31.808Z,16.37
2022-10-08T23:24:00.890Z,16.80
2022-10-08T23:26:29.564Z,16.60
2022-10-08T23:29:00.687Z,16.10
2022-10-08T23:31:36.640Z,15.37
2022-10-08T23:34:06.438Z,15.83
2022-10-08T23:36:36.981Z,15.90
2022-10-08T23:39:06.249Z,15.10
2022-10-08T23:41:34.762Z,15.10
2022-10-08T23:44:04.909Z,14.77
2022-10-08T23:46:33.609Z,13.40
2022-10-08T23:49:01.974Z,14.57
2022-10-08T23:51:32.109Z,14.70
2022-10-08T23:54:02.273Z,15.43
2022-10-08T23:56:30.739Z,14.33
2022-10-08T23:58:59.019Z,14.27
